»·PEaware :: N184GS KCRQ-KHHR

N184GS :: KCRQ-KHHR

FLIGHT INFORMATION

Flight Status: Arrived
Operator: Privately registered:
United States
More flights under this callsign
Pilot: Todd T. (13067)
Aircraft: CESSNA 172 SKYHAWK
(C172)
More flights by this aircraft type
Origin: KCRQ McClellan-Palomar
United States
Destination: KHHR Northrop/Hawthorne Mun
United States
More flights between these airports :: More routes between these airports
Route: +OCN V23 SLI SLI340R WELLZ HHR RY25 LOC
File this flight plan on PilotEdge
Remarks: SANP7
Altitude:
(Current/Filed)
6,000ft
Speed:
(Current/Filed)
0kts
Departed: 11-Oct-18 05:58 PM
Arrived: 11-Oct-18 06:47 PM
Distance/Time
Traveled:
71nm/0:49
Distance/Time
To Go:
Arrived

Flight Plot

Page will automatically refresh every two minutes.


Map Options




Map Legend


Flown Route
Filed Route
Departure Airport
Arrival Airport
Navaid (VOR, NDB)
Fix

Horizontal Profiles

Position Reports

Time Latitude Longitude Heading Altitude Ground
Speed
11-Oct-18 17:52 33.127089 -117.277389 63 297ft 0kts
11-Oct-18 17:53 33.127089 -117.277389 63 297ft 0kts
11-Oct-18 17:54 33.127089 -117.277389 63 297ft 0kts
11-Oct-18 17:55 33.127484 -117.277195 0 297ft 8kts
11-Oct-18 17:56 33.128427 -117.273821 80 297ft 12kts
11-Oct-18 17:57 33.128644 -117.272863 51 297ft 0kts
11-Oct-18 17:58 33.128644 -117.272863 51 297ft 0kts
11-Oct-18 17:59 33.129314 -117.272359 353 297ft 7kts
11-Oct-18 18:00 33.126626 -117.287426 260 671ft 82kts
11-Oct-18 18:01 33.123249 -117.313759 265 1672ft 82kts
11-Oct-18 18:02 33.120379 -117.339955 265 2676ft 79kts
11-Oct-18 18:03 33.127676 -117.359268 343 3541ft 81kts
11-Oct-18 18:04 33.148082 -117.370124 336 4463ft 75kts
11-Oct-18 18:05 33.165627 -117.379368 335 5341ft 68kts
11-Oct-18 18:06 33.185829 -117.389758 332 5944ft 93kts
11-Oct-18 18:07 33.212821 -117.403367 332 5992ft 106kts
11-Oct-18 18:08 33.238614 -117.416504 332 6149ft 101kts
11-Oct-18 18:09 33.261133 -117.436962 314 6148ft 104kts
11-Oct-18 18:10 33.282119 -117.459880 315 6151ft 102kts
11-Oct-18 18:11 33.303138 -117.482462 316 6151ft 101kts
11-Oct-18 18:12 33.324072 -117.504729 315 6150ft 100kts
11-Oct-18 18:13 33.344772 -117.526686 315 6151ft 99kts
11-Oct-18 18:14 33.365593 -117.548775 316 6149ft 101kts
11-Oct-18 18:15 33.386358 -117.571021 316 6148ft 100kts
11-Oct-18 18:16 33.407565 -117.593384 315 6106ft 106kts
11-Oct-18 18:17 33.431025 -117.618222 316 5980ft 114kts
11-Oct-18 18:18 33.454344 -117.642811 316 5978ft 110kts
11-Oct-18 18:19 33.476751 -117.666921 315 5980ft 108kts
11-Oct-18 18:20 33.498021 -117.692129 301 5981ft 106kts
11-Oct-18 18:21 33.514433 -117.721424 301 5980ft 106kts
11-Oct-18 18:22 33.530790 -117.750674 301 5980ft 106kts
11-Oct-18 18:23 33.547235 -117.780066 301 5980ft 106kts
11-Oct-18 18:24 33.563688 -117.809471 301 5980ft 106kts
11-Oct-18 18:25 33.580150 -117.838883 301 5980ft 106kts
11-Oct-18 18:26 33.596630 -117.868313 301 5980ft 106kts
11-Oct-18 18:27 33.612897 -117.897361 301 5980ft 106kts
11-Oct-18 18:28 33.629338 -117.926711 301 5980ft 106kts
11-Oct-18 18:29 33.652790 -117.946918 330 5750ft 107kts
11-Oct-18 18:30 33.679328 -117.962579 329 5319ft 105kts
11-Oct-18 18:31 33.704930 -117.979306 328 4820ft 105kts
11-Oct-18 18:32 33.730906 -117.995301 329 4334ft 103kts
11-Oct-18 18:33 33.755769 -118.011420 327 4061ft 99kts
11-Oct-18 18:34 33.779151 -118.026790 327 3954ft 93kts
11-Oct-18 18:35 33.802182 -118.041049 327 3946ft 90kts
11-Oct-18 18:36 33.824083 -118.054928 330 3944ft 91kts
11-Oct-18 18:37 33.845641 -118.070760 321 3829ft 92kts
11-Oct-18 18:38 33.867290 -118.087931 323 3447ft 93kts
11-Oct-18 18:39 33.887807 -118.106564 315 3034ft 92kts
11-Oct-18 18:40 33.905091 -118.128891 307 2571ft 91kts
11-Oct-18 18:41 33.918678 -118.154382 293 2006ft 90kts
11-Oct-18 18:42 33.927151 -118.182665 286 1488ft 89kts
11-Oct-18 18:43 33.929014 -118.211221 267 1211ft 83kts
11-Oct-18 18:44 33.928339 -118.234176 266 878ft 78kts
11-Oct-18 18:45 33.926274 -118.263949 266 671ft 77kts
11-Oct-18 18:46 33.925413 -118.281946 266 619ft 58kts
11-Oct-18 18:47 33.924449 -118.304656 268 438ft 60kts
11-Oct-18 18:48 33.923601 -118.320777 267 258ft 56kts
11-Oct-18 18:49 33.922552 -118.334466 183 60ft 5kts
11-Oct-18 18:50 33.922035 -118.336118 184 60ft 5kts
11-Oct-18 18:51 33.922021 -118.336119 185 60ft 0kts

Navigation Log

Ident Type
1. KCRQ Airport
2. OCN Navaid
3. KELPS Fix
4. DANAH Fix
5. KRAUZ Fix
6. BALBO Fix
7. MIDDS Fix
8. SLI Navaid
9. WELLZ Fix
10. KHHR Airport